sensor_id;sensor_type;location;lat;lon;timestamp;P1;durP1;ratioP1;P2;durP2;ratioP2
71773;SDS011;59607;52.130;5.430;2023-02-11T00:02:13;17.63;;;2.03;;
71773;SDS011;59607;52.130;5.430;2023-02-11T00:04:41;9.43;;;1.98;;
71773;SDS011;59607;52.130;5.430;2023-02-11T00:07:07;12.05;;;1.73;;
71773;SDS011;59607;52.130;5.430;2023-02-11T00:09:33;16.70;;;2.05;;
71773;SDS011;59607;52.130;5.430;2023-02-11T00:12:00;16.37;;;1.57;;
71773;SDS011;59607;52.130;5.430;2023-02-11T00:14:26;15.48;;;2.38;;
71773;SDS011;59607;52.130;5.430;2023-02-11T00:16:52;10.38;;;1.52;;
71773;SDS011;59607;52.130;5.430;2023-02-11T00:19:19;7.18;;;1.15;;
71773;SDS011;59607;52.130;5.430;2023-02-11T00:22:11;15.50;;;1.75;;
71773;SDS011;59607;52.130;5.430;2023-02-11T00:24:38;18.67;;;2.20;;
71773;SDS011;59607;52.130;5.430;2023-02-11T00:27:04;8.65;;;1.58;;
71773;SDS011;59607;52.130;5.430;2023-02-11T00:29:40;17.55;;;2.08;;
71773;SDS011;59607;52.130;5.430;2023-02-11T00:32:07;9.77;;;1.88;;
71773;SDS011;59607;52.130;5.430;2023-02-11T00:34:51;14.15;;;2.13;;
71773;SDS011;59607;52.130;5.430;2023-02-11T00:37:20;13.13;;;2.17;;
71773;SDS011;59607;52.130;5.430;2023-02-11T00:39:47;13.48;;;1.67;;
71773;SDS011;59607;52.130;5.430;2023-02-11T00:42:17;10.55;;;1.55;;
71773;SDS011;59607;52.130;5.430;2023-02-11T00:44:47;9.82;;;1.17;;
71773;SDS011;59607;52.130;5.430;2023-02-11T00:47:17;10.95;;;2.08;;
71773;SDS011;59607;52.130;5.430;2023-02-11T00:49:49;16.63;;;1.93;;
71773;SDS011;59607;52.130;5.430;2023-02-11T00:52:16;9.07;;;1.70;;
71773;SDS011;59607;52.130;5.430;2023-02-11T00:54:42;14.32;;;2.15;;
71773;SDS011;59607;52.130;5.430;2023-02-11T00:57:14;12.88;;;1.88;;
71773;SDS011;59607;52.130;5.430;2023-02-11T00:59:41;8.70;;;2.15;;
71773;SDS011;59607;52.130;5.430;2023-02-11T01:02:16;19.13;;;1.93;;
71773;SDS011;59607;52.130;5.430;2023-02-11T01:04:43;11.35;;;1.92;;
71773;SDS011;59607;52.130;5.430;2023-02-11T01:07:09;7.25;;;1.52;;
71773;SDS011;59607;52.130;5.430;2023-02-11T01:09:44;12.57;;;1.73;;
71773;SDS011;59607;52.130;5.430;2023-02-11T01:12:11;12.45;;;2.30;;
71773;SDS011;59607;52.130;5.430;2023-02-11T01:14:37;20.30;;;2.37;;
71773;SDS011;59607;52.130;5.430;2023-02-11T01:17:04;14.25;;;2.28;;
71773;SDS011;59607;52.130;5.430;2023-02-11T01:19:31;11.25;;;1.95;;
71773;SDS011;59607;52.130;5.430;2023-02-11T01:21:58;9.30;;;1.73;;
71773;SDS011;59607;52.130;5.430;2023-02-11T01:24:30;12.70;;;1.67;;
71773;SDS011;59607;52.130;5.430;2023-02-11T01:26:57;16.07;;;1.83;;
71773;SDS011;59607;52.130;5.430;2023-02-11T01:29:26;11.13;;;1.60;;
71773;SDS011;59607;52.130;5.430;2023-02-11T01:31:55;11.63;;;2.30;;
71773;SDS011;59607;52.130;5.430;2023-02-11T01:34:22;12.43;;;2.13;;
71773;SDS011;59607;52.130;5.430;2023-02-11T01:37:00;11.38;;;1.77;;
71773;SDS011;59607;52.130;5.430;2023-02-11T01:39:27;9.40;;;1.90;;
71773;SDS011;59607;52.130;5.430;2023-02-11T01:41:54;15.57;;;2.08;;
71773;SDS011;59607;52.130;5.430;2023-02-11T01:44:24;8.32;;;1.70;;
71773;SDS011;59607;52.130;5.430;2023-02-11T01:46:53;10.27;;;1.80;;
71773;SDS011;59607;52.130;5.430;2023-02-11T01:49:49;14.27;;;2.30;;
71773;SDS011;59607;52.130;5.430;2023-02-11T01:52:30;9.17;;;1.77;;
71773;SDS011;59607;52.130;5.430;2023-02-11T01:55:03;12.23;;;1.98;;
71773;SDS011;59607;52.130;5.430;2023-02-11T01:57:55;16.98;;;2.30;;
71773;SDS011;59607;52.130;5.430;2023-02-11T02:00:34;13.80;;;2.10;;
71773;SDS011;59607;52.130;5.430;2023-02-11T02:03:06;13.43;;;1.80;;
71773;SDS011;59607;52.130;5.430;2023-02-11T02:06:00;12.33;;;2.00;;
71773;SDS011;59607;52.130;5.430;2023-02-11T02:11:42;12.30;;;2.05;;
71773;SDS011;59607;52.130;5.430;2023-02-11T02:14:09;11.85;;;1.70;;
71773;SDS011;59607;52.130;5.430;2023-02-11T02:16:39;12.23;;;2.05;;
71773;SDS011;59607;52.130;5.430;2023-02-11T02:22:16;9.23;;;1.90;;
71773;SDS011;59607;52.130;5.430;2023-02-11T02:33:59;14.10;;;2.20;;
71773;SDS011;59607;52.130;5.430;2023-02-11T02:40:41;9.48;;;2.00;;
71773;SDS011;59607;52.130;5.430;2023-02-11T02:43:11;13.90;;;2.63;;
71773;SDS011;59607;52.130;5.430;2023-02-11T02:45:43;15.40;;;2.40;;
71773;SDS011;59607;52.130;5.430;2023-02-11T02:48:23;13.13;;;2.70;;
71773;SDS011;59607;52.130;5.430;2023-02-11T02:50:50;16.83;;;2.40;;
71773;SDS011;59607;52.130;5.430;2023-02-11T02:54:31;11.05;;;2.20;;
71773;SDS011;59607;52.130;5.430;2023-02-11T03:03:03;10.63;;;1.70;;
71773;SDS011;59607;52.130;5.430;2023-02-11T03:09:15;15.27;;;2.63;;
71773;SDS011;59607;52.130;5.430;2023-02-11T03:11:51;12.52;;;3.47;;
71773;SDS011;59607;52.130;5.430;2023-02-11T03:14:18;9.13;;;2.10;;
71773;SDS011;59607;52.130;5.430;2023-02-11T03:16:45;14.67;;;2.47;;
71773;SDS011;59607;52.130;5.430;2023-02-11T03:22:23;9.75;;;2.63;;
71773;SDS011;59607;52.130;5.430;2023-02-11T03:25:07;8.10;;;1.75;;
71773;SDS011;59607;52.130;5.430;2023-02-11T03:27:38;11.77;;;2.45;;
71773;SDS011;59607;52.130;5.430;2023-02-11T03:30:27;12.13;;;2.60;;
71773;SDS011;59607;52.130;5.430;2023-02-11T03:33:13;13.65;;;3.17;;
71773;SDS011;59607;52.130;5.430;2023-02-11T03:36:13;15.43;;;2.78;;
71773;SDS011;59607;52.130;5.430;2023-02-11T03:38:48;12.45;;;2.80;;
71773;SDS011;59607;52.130;5.430;2023-02-11T03:41:20;18.05;;;3.63;;
71773;SDS011;59607;52.130;5.430;2023-02-11T03:43:54;18.33;;;2.97;;
71773;SDS011;59607;52.130;5.430;2023-02-11T03:46:23;15.00;;;2.75;;
71773;SDS011;59607;52.130;5.430;2023-02-11T03:49:14;11.40;;;3.28;;
71773;SDS011;59607;52.130;5.430;2023-02-11T03:51:45;12.75;;;3.78;;
71773;SDS011;59607;52.130;5.430;2023-02-11T03:54:29;14.93;;;3.35;;
71773;SDS011;59607;52.130;5.430;2023-02-11T03:56:59;12.93;;;3.40;;
71773;SDS011;59607;52.130;5.430;2023-02-11T03:59:27;17.33;;;4.10;;
71773;SDS011;59607;52.130;5.430;2023-02-11T04:01:57;14.00;;;4.13;;
71773;SDS011;59607;52.130;5.430;2023-02-11T04:04:28;13.40;;;3.67;;
71773;SDS011;59607;52.130;5.430;2023-02-11T04:06:54;12.65;;;3.40;;
71773;SDS011;59607;52.130;5.430;2023-02-11T04:09:26;27.33;;;5.47;;
71773;SDS011;59607;52.130;5.430;2023-02-11T04:11:52;12.30;;;3.30;;
71773;SDS011;59607;52.130;5.430;2023-02-11T04:14:19;9.57;;;3.75;;
71773;SDS011;59607;52.130;5.430;2023-02-11T04:16:51;11.77;;;3.80;;
71773;SDS011;59607;52.130;5.430;2023-02-11T04:19:18;12.82;;;3.67;;
71773;SDS011;59607;52.130;5.430;2023-02-11T04:21:45;10.23;;;4.57;;
71773;SDS011;59607;52.130;5.430;2023-02-11T04:24:19;13.50;;;4.50;;
71773;SDS011;59607;52.130;5.430;2023-02-11T04:27:00;12.77;;;4.50;;
71773;SDS011;59607;52.130;5.430;2023-02-11T04:29:32;12.65;;;4.45;;
71773;SDS011;59607;52.130;5.430;2023-02-11T04:32:02;13.63;;;3.88;;
71773;SDS011;59607;52.130;5.430;2023-02-11T04:34:29;13.70;;;4.40;;
71773;SDS011;59607;52.130;5.430;2023-02-11T04:37:01;16.13;;;4.43;;
71773;SDS011;59607;52.130;5.430;2023-02-11T04:39:28;20.55;;;5.30;;
71773;SDS011;59607;52.130;5.430;2023-02-11T04:41:54;18.23;;;4.95;;
71773;SDS011;59607;52.130;5.430;2023-02-11T04:44:21;21.55;;;6.10;;
71773;SDS011;59607;52.130;5.430;2023-02-11T04:46:47;21.50;;;5.93;;
71773;SDS011;59607;52.130;5.430;2023-02-11T04:49:14;18.25;;;4.75;;
71773;SDS011;59607;52.130;5.430;2023-02-11T04:51:46;13.15;;;5.63;;
71773;SDS011;59607;52.130;5.430;2023-02-11T04:54:16;23.25;;;5.82;;
71773;SDS011;59607;52.130;5.430;2023-02-11T04:56:44;16.60;;;5.90;;
71773;SDS011;59607;52.130;5.430;2023-02-11T04:59:14;15.00;;;5.87;;
71773;SDS011;59607;52.130;5.430;2023-02-11T05:01:41;23.15;;;6.60;;
71773;SDS011;59607;52.130;5.430;2023-02-11T05:04:07;16.83;;;6.10;;
71773;SDS011;59607;52.130;5.430;2023-02-11T05:06:46;20.92;;;7.43;;
71773;SDS011;59607;52.130;5.430;2023-02-11T05:09:13;31.33;;;8.55;;
71773;SDS011;59607;52.130;5.430;2023-02-11T05:11:41;19.57;;;6.37;;
71773;SDS011;59607;52.130;5.430;2023-02-11T05:14:08;19.92;;;6.22;;
71773;SDS011;59607;52.130;5.430;2023-02-11T05:16:34;24.52;;;6.88;;
71773;SDS011;59607;52.130;5.430;2023-02-11T05:19:07;11.93;;;5.72;;
71773;SDS011;59607;52.130;5.430;2023-02-11T05:21:33;19.35;;;6.72;;
71773;SDS011;59607;52.130;5.430;2023-02-11T05:24:02;15.40;;;6.80;;
71773;SDS011;59607;52.130;5.430;2023-02-11T05:26:31;17.70;;;7.57;;
71773;SDS011;59607;52.130;5.430;2023-02-11T05:28:57;18.45;;;6.60;;
71773;SDS011;59607;52.130;5.430;2023-02-11T05:31:24;19.98;;;6.95;;
71773;SDS011;59607;52.130;5.430;2023-02-11T05:33:54;20.55;;;7.00;;
71773;SDS011;59607;52.130;5.430;2023-02-11T05:36:20;17.23;;;7.13;;
71773;SDS011;59607;52.130;5.430;2023-02-11T05:38:47;19.67;;;6.78;;
71773;SDS011;59607;52.130;5.430;2023-02-11T05:41:16;19.75;;;7.03;;
71773;SDS011;59607;52.130;5.430;2023-02-11T05:43:47;15.68;;;7.38;;
71773;SDS011;59607;52.130;5.430;2023-02-11T05:46:18;16.27;;;8.38;;
71773;SDS011;59607;52.130;5.430;2023-02-11T05:48:52;22.17;;;7.20;;
71773;SDS011;59607;52.130;5.430;2023-02-11T05:51:29;16.80;;;7.70;;
71773;SDS011;59607;52.130;5.430;2023-02-11T05:53:56;20.83;;;8.38;;
71773;SDS011;59607;52.130;5.430;2023-02-11T05:56:22;21.40;;;7.20;;
71773;SDS011;59607;52.130;5.430;2023-02-11T05:58:52;18.48;;;7.80;;
71773;SDS011;59607;52.130;5.430;2023-02-11T06:01:18;18.17;;;7.97;;
71773;SDS011;59607;52.130;5.430;2023-02-11T06:03:47;19.73;;;7.43;;
71773;SDS011;59607;52.130;5.430;2023-02-11T06:06:20;23.13;;;8.63;;
71773;SDS011;59607;52.130;5.430;2023-02-11T06:08:46;25.27;;;8.45;;
71773;SDS011;59607;52.130;5.430;2023-02-11T06:11:30;20.48;;;7.88;;
71773;SDS011;59607;52.130;5.430;2023-02-11T06:14:00;22.40;;;8.20;;
71773;SDS011;59607;52.130;5.430;2023-02-11T06:16:26;18.10;;;7.60;;
71773;SDS011;59607;52.130;5.430;2023-02-11T06:18:53;23.27;;;9.25;;
71773;SDS011;59607;52.130;5.430;2023-02-11T06:21:28;21.80;;;7.88;;
71773;SDS011;59607;52.130;5.430;2023-02-11T06:24:08;20.55;;;9.05;;
71773;SDS011;59607;52.130;5.430;2023-02-11T06:26:35;16.17;;;8.30;;
71773;SDS011;59607;52.130;5.430;2023-02-11T06:29:17;17.23;;;8.35;;
71773;SDS011;59607;52.130;5.430;2023-02-11T06:31:46;24.95;;;9.48;;
71773;SDS011;59607;52.130;5.430;2023-02-11T06:34:15;20.15;;;8.13;;
71773;SDS011;59607;52.130;5.430;2023-02-11T06:36:41;21.30;;;10.20;;
71773;SDS011;59607;52.130;5.430;2023-02-11T06:39:15;19.77;;;8.57;;
71773;SDS011;59607;52.130;5.430;2023-02-11T06:41:42;21.10;;;9.07;;
71773;SDS011;59607;52.130;5.430;2023-02-11T06:44:18;24.83;;;9.60;;
71773;SDS011;59607;52.130;5.430;2023-02-11T06:46:45;27.33;;;8.52;;
71773;SDS011;59607;52.130;5.430;2023-02-11T06:49:11;26.42;;;8.80;;
71773;SDS011;59607;52.130;5.430;2023-02-11T06:51:41;22.77;;;8.67;;
71773;SDS011;59607;52.130;5.430;2023-02-11T06:54:07;23.10;;;8.52;;
71773;SDS011;59607;52.130;5.430;2023-02-11T06:56:33;18.00;;;8.48;;
71773;SDS011;59607;52.130;5.430;2023-02-11T06:59:07;26.90;;;8.27;;
71773;SDS011;59607;52.130;5.430;2023-02-11T07:01:34;27.45;;;9.98;;
71773;SDS011;59607;52.130;5.430;2023-02-11T07:04:03;30.90;;;9.17;;
71773;SDS011;59607;52.130;5.430;2023-02-11T07:06:29;20.42;;;9.38;;
71773;SDS011;59607;52.130;5.430;2023-02-11T07:08:56;21.10;;;9.43;;
71773;SDS011;59607;52.130;5.430;2023-02-11T07:11:26;23.92;;;9.45;;
71773;SDS011;59607;52.130;5.430;2023-02-11T07:13:55;24.50;;;9.60;;
71773;SDS011;59607;52.130;5.430;2023-02-11T07:16:24;22.77;;;9.67;;
71773;SDS011;59607;52.130;5.430;2023-02-11T07:18:53;23.38;;;8.82;;
71773;SDS011;59607;52.130;5.430;2023-02-11T07:21:23;24.00;;;9.98;;
71773;SDS011;59607;52.130;5.430;2023-02-11T07:23:49;28.50;;;9.68;;
71773;SDS011;59607;52.130;5.430;2023-02-11T07:26:22;19.65;;;10.02;;
71773;SDS011;59607;52.130;5.430;2023-02-11T07:28:51;25.80;;;11.20;;
71773;SDS011;59607;52.130;5.430;2023-02-11T07:31:27;25.00;;;10.32;;
71773;SDS011;59607;52.130;5.430;2023-02-11T07:33:55;21.00;;;10.02;;
71773;SDS011;59607;52.130;5.430;2023-02-11T07:36:28;26.33;;;9.77;;
71773;SDS011;59607;52.130;5.430;2023-02-11T07:38:56;27.38;;;11.23;;
71773;SDS011;59607;52.130;5.430;2023-02-11T07:41:26;22.70;;;9.97;;
71773;SDS011;59607;52.130;5.430;2023-02-11T07:43:55;28.55;;;11.00;;
71773;SDS011;59607;52.130;5.430;2023-02-11T07:46:22;27.95;;;10.98;;
71773;SDS011;59607;52.130;5.430;2023-02-11T07:48:56;23.75;;;10.60;;
71773;SDS011;59607;52.130;5.430;2023-02-11T07:51:32;22.42;;;10.63;;
71773;SDS011;59607;52.130;5.430;2023-02-11T07:54:02;28.47;;;11.23;;
71773;SDS011;59607;52.130;5.430;2023-02-11T07:56:30;25.83;;;10.45;;
71773;SDS011;59607;52.130;5.430;2023-02-11T07:59:01;26.35;;;11.13;;
71773;SDS011;59607;52.130;5.430;2023-02-11T08:01:29;24.05;;;10.93;;
71773;SDS011;59607;52.130;5.430;2023-02-11T08:04:00;20.95;;;10.00;;
71773;SDS011;59607;52.130;5.430;2023-02-11T08:06:30;18.30;;;10.57;;
71773;SDS011;59607;52.130;5.430;2023-02-11T08:09:08;22.73;;;10.02;;
71773;SDS011;59607;52.130;5.430;2023-02-11T08:11:43;23.17;;;10.18;;
71773;SDS011;59607;52.130;5.430;2023-02-11T08:14:10;24.00;;;10.73;;
71773;SDS011;59607;52.130;5.430;2023-02-11T08:16:37;29.65;;;10.38;;
71773;SDS011;59607;52.130;5.430;2023-02-11T08:19:09;22.90;;;10.73;;
71773;SDS011;59607;52.130;5.430;2023-02-11T08:21:42;27.00;;;10.68;;
71773;SDS011;59607;52.130;5.430;2023-02-11T08:24:13;23.20;;;10.90;;
71773;SDS011;59607;52.130;5.430;2023-02-11T08:26:43;29.95;;;10.95;;
71773;SDS011;59607;52.130;5.430;2023-02-11T08:29:10;25.80;;;11.55;;
71773;SDS011;59607;52.130;5.430;2023-02-11T08:31:43;24.63;;;11.10;;
71773;SDS011;59607;52.130;5.430;2023-02-11T08:34:14;22.98;;;10.07;;
71773;SDS011;59607;52.130;5.430;2023-02-11T08:36:48;20.67;;;11.30;;
71773;SDS011;59607;52.130;5.430;2023-02-11T08:39:18;26.90;;;11.55;;
71773;SDS011;59607;52.130;5.430;2023-02-11T08:41:57;27.00;;;10.90;;
71773;SDS011;59607;52.130;5.430;2023-02-11T08:44:24;30.57;;;11.33;;
71773;SDS011;59607;52.130;5.430;2023-02-11T08:46:53;24.17;;;10.55;;
71773;SDS011;59607;52.130;5.430;2023-02-11T08:49:22;25.88;;;11.32;;
71773;SDS011;59607;52.130;5.430;2023-02-11T08:51:53;19.10;;;10.70;;
71773;SDS011;59607;52.130;5.430;2023-02-11T08:54:21;26.65;;;11.75;;
71773;SDS011;59607;52.130;5.430;2023-02-11T08:59:31;23.48;;;10.18;;
71773;SDS011;59607;52.130;5.430;2023-02-11T09:02:04;26.02;;;10.35;;
71773;SDS011;59607;52.130;5.430;2023-02-11T09:04:31;22.70;;;10.52;;
71773;SDS011;59607;52.130;5.430;2023-02-11T09:07:01;25.48;;;11.27;;
71773;SDS011;59607;52.130;5.430;2023-02-11T09:09:28;18.77;;;10.57;;
71773;SDS011;59607;52.130;5.430;2023-02-11T09:11:57;24.35;;;11.43;;
71773;SDS011;59607;52.130;5.430;2023-02-11T09:14:29;20.80;;;10.38;;
71773;SDS011;59607;52.130;5.430;2023-02-11T09:16:56;20.58;;;10.25;;
71773;SDS011;59607;52.130;5.430;2023-02-11T09:19:39;18.75;;;10.60;;
71773;SDS011;59607;52.130;5.430;2023-02-11T09:22:07;19.20;;;9.83;;
71773;SDS011;59607;52.130;5.430;2023-02-11T09:24:37;20.17;;;9.18;;
71773;SDS011;59607;52.130;5.430;2023-02-11T09:27:04;19.85;;;10.45;;
71773;SDS011;59607;52.130;5.430;2023-02-11T09:29:36;25.77;;;10.55;;
71773;SDS011;59607;52.130;5.430;2023-02-11T09:32:02;22.40;;;10.50;;
71773;SDS011;59607;52.130;5.430;2023-02-11T09:34:40;19.50;;;10.67;;
71773;SDS011;59607;52.130;5.430;2023-02-11T09:37:06;25.02;;;11.02;;
71773;SDS011;59607;52.130;5.430;2023-02-11T09:39:33;18.17;;;9.85;;
71773;SDS011;59607;52.130;5.430;2023-02-11T09:45:11;18.40;;;9.65;;
71773;SDS011;59607;52.130;5.430;2023-02-11T09:47:44;22.13;;;9.83;;
71773;SDS011;59607;52.130;5.430;2023-02-11T09:50:15;15.57;;;8.95;;
71773;SDS011;59607;52.130;5.430;2023-02-11T09:52:53;21.27;;;9.38;;
71773;SDS011;59607;52.130;5.430;2023-02-11T09:57:56;15.75;;;9.73;;
71773;SDS011;59607;52.130;5.430;2023-02-11T10:00:26;18.60;;;9.07;;
71773;SDS011;59607;52.130;5.430;2023-02-11T10:03:07;14.82;;;8.98;;
71773;SDS011;59607;52.130;5.430;2023-02-11T10:23:24;14.05;;;8.45;;
71773;SDS011;59607;52.130;5.430;2023-02-11T10:26:13;14.35;;;8.65;;
71773;SDS011;59607;52.130;5.430;2023-02-11T10:28:55;14.10;;;8.43;;
71773;SDS011;59607;52.130;5.430;2023-02-11T10:31:37;11.18;;;7.55;;
71773;SDS011;59607;52.130;5.430;2023-02-11T10:34:09;16.30;;;8.30;;
71773;SDS011;59607;52.130;5.430;2023-02-11T10:36:58;13.00;;;7.50;;
71773;SDS011;59607;52.130;5.430;2023-02-11T10:39:25;12.68;;;7.55;;
71773;SDS011;59607;52.130;5.430;2023-02-11T10:42:18;11.70;;;7.47;;
71773;SDS011;59607;52.130;5.430;2023-02-11T10:45:02;14.45;;;7.43;;
71773;SDS011;59607;52.130;5.430;2023-02-11T10:47:37;11.25;;;6.97;;
71773;SDS011;59607;52.130;5.430;2023-02-11T10:50:28;10.65;;;6.60;;
71773;SDS011;59607;52.130;5.430;2023-02-11T10:53:10;14.57;;;6.97;;
71773;SDS011;59607;52.130;5.430;2023-02-11T10:55:53;8.23;;;6.67;;
71773;SDS011;59607;52.130;5.430;2023-02-11T10:58:25;9.15;;;7.13;;
71773;SDS011;59607;52.130;5.430;2023-02-11T11:01:15;10.27;;;7.30;;
71773;SDS011;59607;52.130;5.430;2023-02-11T11:03:52;13.15;;;7.07;;
71773;SDS011;59607;52.130;5.430;2023-02-11T11:06:34;10.82;;;7.55;;
71773;SDS011;59607;52.130;5.430;2023-02-11T11:09:01;12.17;;;6.77;;
71773;SDS011;59607;52.130;5.430;2023-02-11T11:11:37;12.00;;;6.65;;
71773;SDS011;59607;52.130;5.430;2023-02-11T11:14:18;10.75;;;6.30;;
71773;SDS011;59607;52.130;5.430;2023-02-11T11:16:51;10.20;;;6.18;;
71773;SDS011;59607;52.130;5.430;2023-02-11T11:19:21;8.60;;;6.03;;
71773;SDS011;59607;52.130;5.430;2023-02-11T11:21:50;9.10;;;6.23;;
71773;SDS011;59607;52.130;5.430;2023-02-11T11:24:31;8.98;;;5.88;;
71773;SDS011;59607;52.130;5.430;2023-02-11T11:27:16;8.48;;;5.47;;
71773;SDS011;59607;52.130;5.430;2023-02-11T11:29:52;9.63;;;5.15;;
71773;SDS011;59607;52.130;5.430;2023-02-11T11:32:29;9.35;;;6.32;;
71773;SDS011;59607;52.130;5.430;2023-02-11T11:34:59;9.37;;;5.93;;
71773;SDS011;59607;52.130;5.430;2023-02-11T11:37:35;8.40;;;5.82;;
71773;SDS011;59607;52.130;5.430;2023-02-11T11:42:41;9.52;;;6.03;;
71773;SDS011;59607;52.130;5.430;2023-02-11T11:45:21;6.93;;;5.63;;
71773;SDS011;59607;52.130;5.430;2023-02-11T11:48:13;11.13;;;5.40;;
71773;SDS011;59607;52.130;5.430;2023-02-11T11:50:52;19.75;;;8.45;;
71773;SDS011;59607;52.130;5.430;2023-02-11T11:56:41;14.18;;;7.93;;
71773;SDS011;59607;52.130;5.430;2023-02-11T11:59:30;10.35;;;5.22;;
71773;SDS011;59607;52.130;5.430;2023-02-11T12:05:11;5.35;;;4.75;;
71773;SDS011;59607;52.130;5.430;2023-02-11T12:10:38;8.93;;;5.63;;
71773;SDS011;59607;52.130;5.430;2023-02-11T12:30:27;6.63;;;3.30;;
71773;SDS011;59607;52.130;5.430;2023-02-11T12:42:37;3.58;;;2.92;;
71773;SDS011;59607;52.130;5.430;2023-02-11T12:51:28;4.70;;;3.22;;
71773;SDS011;59607;52.130;5.430;2023-02-11T12:57:20;4.10;;;2.95;;
71773;SDS011;59607;52.130;5.430;2023-02-11T13:02:53;5.75;;;3.10;;
71773;SDS011;59607;52.130;5.430;2023-02-11T13:08:11;3.97;;;3.20;;
71773;SDS011;59607;52.130;5.430;2023-02-11T13:10:46;3.30;;;3.00;;
71773;SDS011;59607;52.130;5.430;2023-02-11T13:13:17;4.07;;;3.67;;
71773;SDS011;59607;52.130;5.430;2023-02-11T13:15:55;4.05;;;3.17;;
71773;SDS011;59607;52.130;5.430;2023-02-11T13:18:51;4.05;;;3.58;;
71773;SDS011;59607;52.130;5.430;2023-02-11T13:24:28;5.22;;;3.30;;
71773;SDS011;59607;52.130;5.430;2023-02-11T13:33:16;4.85;;;3.08;;
71773;SDS011;59607;52.130;5.430;2023-02-11T13:38:32;4.80;;;3.47;;
71773;SDS011;59607;52.130;5.430;2023-02-11T13:44:16;6.95;;;3.13;;
71773;SDS011;59607;52.130;5.430;2023-02-11T13:47:01;3.60;;;3.30;;
71773;SDS011;59607;52.130;5.430;2023-02-11T13:52:02;7.35;;;3.63;;
71773;SDS011;59607;52.130;5.430;2023-02-11T13:54:45;4.93;;;3.27;;
71773;SDS011;59607;52.130;5.430;2023-02-11T13:59:48;5.25;;;3.10;;
71773;SDS011;59607;52.130;5.430;2023-02-11T14:05:22;3.42;;;3.13;;
71773;SDS011;59607;52.130;5.430;2023-02-11T14:08:14;6.27;;;3.30;;
71773;SDS011;59607;52.130;5.430;2023-02-11T14:16:23;4.85;;;3.05;;
71773;SDS011;59607;52.130;5.430;2023-02-11T14:19:04;3.97;;;3.33;;
71773;SDS011;59607;52.130;5.430;2023-02-11T14:21:33;4.87;;;3.23;;
71773;SDS011;59607;52.130;5.430;2023-02-11T14:29:36;4.22;;;2.75;;
71773;SDS011;59607;52.130;5.430;2023-02-11T14:37:53;3.80;;;3.20;;
71773;SDS011;59607;52.130;5.430;2023-02-11T14:40:30;3.50;;;3.20;;
71773;SDS011;59607;52.130;5.430;2023-02-11T14:43:13;6.75;;;3.47;;
71773;SDS011;59607;52.130;5.430;2023-02-11T14:45:48;7.97;;;4.00;;
71773;SDS011;59607;52.130;5.430;2023-02-11T14:48:18;4.77;;;3.37;;
71773;SDS011;59607;52.130;5.430;2023-02-11T14:50:52;3.55;;;3.15;;
71773;SDS011;59607;52.130;5.430;2023-02-11T14:53:31;6.70;;;3.55;;
71773;SDS011;59607;52.130;5.430;2023-02-11T14:56:16;6.72;;;3.45;;
71773;SDS011;59607;52.130;5.430;2023-02-11T14:58:49;6.80;;;3.72;;
71773;SDS011;59607;52.130;5.430;2023-02-11T15:01:33;5.73;;;3.30;;
71773;SDS011;59607;52.130;5.430;2023-02-11T15:06:56;8.40;;;3.58;;
71773;SDS011;59607;52.130;5.430;2023-02-11T15:12:37;4.78;;;3.40;;
71773;SDS011;59607;52.130;5.430;2023-02-11T15:15:10;5.57;;;3.00;;
71773;SDS011;59607;52.130;5.430;2023-02-11T15:17:46;5.50;;;3.20;;
71773;SDS011;59607;52.130;5.430;2023-02-11T15:20:35;4.43;;;3.63;;
71773;SDS011;59607;52.130;5.430;2023-02-11T15:23:20;3.88;;;3.22;;
71773;SDS011;59607;52.130;5.430;2023-02-11T15:32:10;5.07;;;3.07;;
71773;SDS011;59607;52.130;5.430;2023-02-11T15:37:35;5.43;;;3.38;;
71773;SDS011;59607;52.130;5.430;2023-02-11T15:40:23;4.43;;;2.95;;
71773;SDS011;59607;52.130;5.430;2023-02-11T15:46:39;4.73;;;2.60;;
71773;SDS011;59607;52.130;5.430;2023-02-11T15:49:29;8.00;;;3.70;;
71773;SDS011;59607;52.130;5.430;2023-02-11T15:52:24;7.03;;;3.97;;
71773;SDS011;59607;52.130;5.430;2023-02-11T15:54:55;8.18;;;4.43;;
71773;SDS011;59607;52.130;5.430;2023-02-11T15:57:52;5.85;;;3.70;;
71773;SDS011;59607;52.130;5.430;2023-02-11T16:00:35;5.43;;;4.83;;
71773;SDS011;59607;52.130;5.430;2023-02-11T16:03:20;5.63;;;4.72;;
71773;SDS011;59607;52.130;5.430;2023-02-11T16:05:50;5.78;;;4.38;;
71773;SDS011;59607;52.130;5.430;2023-02-11T16:08:29;6.90;;;4.13;;
71773;SDS011;59607;52.130;5.430;2023-02-11T16:11:01;8.20;;;3.97;;
71773;SDS011;59607;52.130;5.430;2023-02-11T16:13:50;5.17;;;3.70;;
71773;SDS011;59607;52.130;5.430;2023-02-11T16:16:20;6.10;;;3.80;;
71773;SDS011;59607;52.130;5.430;2023-02-11T16:18:57;5.47;;;3.15;;
71773;SDS011;59607;52.130;5.430;2023-02-11T16:21:33;4.97;;;3.40;;
71773;SDS011;59607;52.130;5.430;2023-02-11T16:24:04;6.68;;;3.55;;
71773;SDS011;59607;52.130;5.430;2023-02-11T16:26:33;6.53;;;3.20;;
71773;SDS011;59607;52.130;5.430;2023-02-11T16:29:15;4.30;;;3.20;;
71773;SDS011;59607;52.130;5.430;2023-02-11T16:31:49;5.60;;;3.80;;
71773;SDS011;59607;52.130;5.430;2023-02-11T16:34:24;4.65;;;3.28;;
71773;SDS011;59607;52.130;5.430;2023-02-11T16:36:52;4.78;;;3.28;;
71773;SDS011;59607;52.130;5.430;2023-02-11T16:39:38;6.10;;;3.53;;
71773;SDS011;59607;52.130;5.430;2023-02-11T16:42:14;3.22;;;2.67;;
71773;SDS011;59607;52.130;5.430;2023-02-11T16:44:43;4.78;;;3.38;;
71773;SDS011;59607;52.130;5.430;2023-02-11T16:47:29;6.03;;;2.83;;
71773;SDS011;59607;52.130;5.430;2023-02-11T16:49:59;9.68;;;3.40;;
71773;SDS011;59607;52.130;5.430;2023-02-11T16:52:52;4.07;;;3.10;;
71773;SDS011;59607;52.130;5.430;2023-02-11T16:55:20;4.53;;;2.88;;
71773;SDS011;59607;52.130;5.430;2023-02-11T16:57:56;7.65;;;3.15;;
71773;SDS011;59607;52.130;5.430;2023-02-11T17:00:23;6.13;;;2.92;;
71773;SDS011;59607;52.130;5.430;2023-02-11T17:02:58;4.70;;;3.22;;
71773;SDS011;59607;52.130;5.430;2023-02-11T17:05:24;6.53;;;3.40;;
71773;SDS011;59607;52.130;5.430;2023-02-11T17:08:01;4.68;;;2.92;;
71773;SDS011;59607;52.130;5.430;2023-02-11T17:10:28;6.00;;;3.38;;
71773;SDS011;59607;52.130;5.430;2023-02-11T17:12:58;6.35;;;3.22;;
71773;SDS011;59607;52.130;5.430;2023-02-11T17:15:25;6.72;;;3.40;;
71773;SDS011;59607;52.130;5.430;2023-02-11T17:17:51;4.77;;;3.67;;
71773;SDS011;59607;52.130;5.430;2023-02-11T17:20:20;5.40;;;3.28;;
71773;SDS011;59607;52.130;5.430;2023-02-11T17:22:48;8.38;;;4.25;;
71773;SDS011;59607;52.130;5.430;2023-02-11T17:25:15;6.38;;;4.10;;
71773;SDS011;59607;52.130;5.430;2023-02-11T17:27:45;6.60;;;4.15;;
71773;SDS011;59607;52.130;5.430;2023-02-11T17:30:18;6.37;;;3.40;;
71773;SDS011;59607;52.130;5.430;2023-02-11T17:32:47;7.18;;;3.80;;
71773;SDS011;59607;52.130;5.430;2023-02-11T17:35:18;7.80;;;3.10;;
71773;SDS011;59607;52.130;5.430;2023-02-11T17:37:51;5.47;;;3.50;;
71773;SDS011;59607;52.130;5.430;2023-02-11T17:40:19;8.95;;;4.15;;
71773;SDS011;59607;52.130;5.430;2023-02-11T17:42:45;7.53;;;3.83;;
71773;SDS011;59607;52.130;5.430;2023-02-11T17:45:12;5.28;;;3.53;;
71773;SDS011;59607;52.130;5.430;2023-02-11T17:47:45;4.70;;;3.25;;
71773;SDS011;59607;52.130;5.430;2023-02-11T17:50:14;10.90;;;4.20;;
71773;SDS011;59607;52.130;5.430;2023-02-11T17:52:41;6.43;;;3.88;;
71773;SDS011;59607;52.130;5.430;2023-02-11T17:55:07;5.60;;;3.87;;
71773;SDS011;59607;52.130;5.430;2023-02-11T17:57:34;8.32;;;4.53;;
71773;SDS011;59607;52.130;5.430;2023-02-11T18:00:01;8.25;;;4.82;;
71773;SDS011;59607;52.130;5.430;2023-02-11T18:02:33;6.55;;;3.78;;
71773;SDS011;59607;52.130;5.430;2023-02-11T18:04:59;7.63;;;4.55;;